Bristol, Florida
Current Conditions -  °F | °C
As of 9:15 AM on Friday 19 Dec 2014 (Local Time) from K2J9 Reporting Station
Overcast Overcast  
Wind Chill: 54°   Ceiling: 4800
Heat Index: 54°   Visibility: 10mi
Dew Point: 36°   Wind: 6mph
Humidity: 51%   Direction: 70°ENE
Pressure: 30.18"   Gusts: NA
Location:  30.43°N, 84.98°W
Report Text: K2J9 191415Z AUTO 07005KT 10SM OVC048 12/02 A3018 RMK AO1 P0070
Loading
Personal Weather Stations






























Interactive Weather Map New forecast layout! Learn more

10-Day Weather Forecast

Advertisements
Track Severe Weather on mobile